sensor_id;sensor_type;location;lat;lon;timestamp;temperature;humidity
24085;DHT22;12268;52.110;5.548;2023-06-24T00:00:36;22.20;99.90
24085;DHT22;12268;52.110;5.548;2023-06-24T00:03:02;22.20;99.90
24085;DHT22;12268;52.110;5.548;2023-06-24T00:05:28;22.10;99.90
24085;DHT22;12268;52.110;5.548;2023-06-24T00:07:54;22.10;99.90
24085;DHT22;12268;52.110;5.548;2023-06-24T00:10:22;21.90;99.90
24085;DHT22;12268;52.110;5.548;2023-06-24T00:12:48;21.90;99.90
24085;DHT22;12268;52.110;5.548;2023-06-24T00:15:13;22.00;99.90
24085;DHT22;12268;52.110;5.548;2023-06-24T00:17:39;22.00;99.90
24085;DHT22;12268;52.110;5.548;2023-06-24T00:20:06;22.00;99.90
24085;DHT22;12268;52.110;5.548;2023-06-24T00:22:34;22.00;99.90
24085;DHT22;12268;52.110;5.548;2023-06-24T00:25:00;21.80;99.90
24085;DHT22;12268;52.110;5.548;2023-06-24T00:27:26;21.60;99.90
24085;DHT22;12268;52.110;5.548;2023-06-24T00:29:51;21.70;99.90
24085;DHT22;12268;52.110;5.548;2023-06-24T00:32:17;21.80;99.90
24085;DHT22;12268;52.110;5.548;2023-06-24T00:34:42;21.80;99.90
24085;DHT22;12268;52.110;5.548;2023-06-24T00:37:09;21.70;99.90
24085;DHT22;12268;52.110;5.548;2023-06-24T00:39:35;21.60;99.90
24085;DHT22;12268;52.110;5.548;2023-06-24T00:42:00;21.50;99.90
24085;DHT22;12268;52.110;5.548;2023-06-24T00:44:26;21.50;99.90
24085;DHT22;12268;52.110;5.548;2023-06-24T00:46:51;21.40;99.90
24085;DHT22;12268;52.110;5.548;2023-06-24T00:49:17;21.40;99.90
24085;DHT22;12268;52.110;5.548;2023-06-24T00:51:43;21.40;99.90
24085;DHT22;12268;52.110;5.548;2023-06-24T00:54:13;21.50;99.90
24085;DHT22;12268;52.110;5.548;2023-06-24T00:56:38;21.40;99.90
24085;DHT22;12268;52.110;5.548;2023-06-24T00:59:04;21.10;99.90
24085;DHT22;12268;52.110;5.548;2023-06-24T01:01:33;20.90;99.90
24085;DHT22;12268;52.110;5.548;2023-06-24T01:03:59;20.80;99.90
24085;DHT22;12268;52.110;5.548;2023-06-24T01:06:25;20.80;99.90
24085;DHT22;12268;52.110;5.548;2023-06-24T01:08:58;20.80;99.90
24085;DHT22;12268;52.110;5.548;2023-06-24T01:11:26;20.90;99.90
24085;DHT22;12268;52.110;5.548;2023-06-24T01:13:51;20.80;99.90
24085;DHT22;12268;52.110;5.548;2023-06-24T01:16:43;20.80;99.90
24085;DHT22;12268;52.110;5.548;2023-06-24T01:24:47;20.80;99.90
24085;DHT22;12268;52.110;5.548;2023-06-24T01:33:12;20.80;99.90
24085;DHT22;12268;52.110;5.548;2023-06-24T01:35:41;20.80;99.90
24085;DHT22;12268;52.110;5.548;2023-06-24T01:38:12;20.80;99.90
24085;DHT22;12268;52.110;5.548;2023-06-24T01:40:44;20.90;99.90
24085;DHT22;12268;52.110;5.548;2023-06-24T01:43:11;21.00;99.90
24085;DHT22;12268;52.110;5.548;2023-06-24T01:45:52;21.00;99.90
24085;DHT22;12268;52.110;5.548;2023-06-24T01:48:27;21.10;99.90
24085;DHT22;12268;52.110;5.548;2023-06-24T01:51:17;21.10;99.90
24085;DHT22;12268;52.110;5.548;2023-06-24T01:53:52;21.20;99.90
24085;DHT22;12268;52.110;5.548;2023-06-24T01:56:21;21.20;99.90
24085;DHT22;12268;52.110;5.548;2023-06-24T01:58:48;21.30;99.90
24085;DHT22;12268;52.110;5.548;2023-06-24T02:01:16;21.40;99.90
24085;DHT22;12268;52.110;5.548;2023-06-24T02:03:43;21.30;99.90
24085;DHT22;12268;52.110;5.548;2023-06-24T02:06:09;21.30;99.90
24085;DHT22;12268;52.110;5.548;2023-06-24T02:08:38;21.30;99.90
24085;DHT22;12268;52.110;5.548;2023-06-24T02:11:05;21.30;99.90
24085;DHT22;12268;52.110;5.548;2023-06-24T02:13:32;20.80;99.90
24085;DHT22;12268;52.110;5.548;2023-06-24T02:16:01;20.50;99.90
24085;DHT22;12268;52.110;5.548;2023-06-24T02:18:28;20.50;99.90
24085;DHT22;12268;52.110;5.548;2023-06-24T02:20:55;20.50;99.90
24085;DHT22;12268;52.110;5.548;2023-06-24T02:23:22;20.50;99.90
24085;DHT22;12268;52.110;5.548;2023-06-24T02:25:49;20.50;99.90
24085;DHT22;12268;52.110;5.548;2023-06-24T02:28:15;20.60;99.90
24085;DHT22;12268;52.110;5.548;2023-06-24T02:30:42;20.50;99.90
24085;DHT22;12268;52.110;5.548;2023-06-24T02:33:09;20.50;99.90
24085;DHT22;12268;52.110;5.548;2023-06-24T02:35:37;20.50;99.90
24085;DHT22;12268;52.110;5.548;2023-06-24T02:38:03;20.50;99.90
24085;DHT22;12268;52.110;5.548;2023-06-24T02:40:28;20.60;99.90
24085;DHT22;12268;52.110;5.548;2023-06-24T02:42:54;20.60;99.90
24085;DHT22;12268;52.110;5.548;2023-06-24T02:45:20;20.60;99.90
24085;DHT22;12268;52.110;5.548;2023-06-24T02:47:47;20.50;99.90
24085;DHT22;12268;52.110;5.548;2023-06-24T02:50:14;20.50;99.90
24085;DHT22;12268;52.110;5.548;2023-06-24T02:52:40;20.40;99.90
24085;DHT22;12268;52.110;5.548;2023-06-24T02:55:07;20.40;99.90
24085;DHT22;12268;52.110;5.548;2023-06-24T02:57:34;20.20;99.90
24085;DHT22;12268;52.110;5.548;2023-06-24T03:00:02;20.20;99.90
24085;DHT22;12268;52.110;5.548;2023-06-24T03:02:31;20.30;99.90
24085;DHT22;12268;52.110;5.548;2023-06-24T03:04:57;20.30;99.90
24085;DHT22;12268;52.110;5.548;2023-06-24T03:07:24;20.30;99.90
24085;DHT22;12268;52.110;5.548;2023-06-24T03:09:51;20.40;99.90
24085;DHT22;12268;52.110;5.548;2023-06-24T03:12:16;20.00;99.90
24085;DHT22;12268;52.110;5.548;2023-06-24T03:14:42;20.00;99.90
24085;DHT22;12268;52.110;5.548;2023-06-24T03:17:08;20.00;99.90
24085;DHT22;12268;52.110;5.548;2023-06-24T03:19:34;20.00;99.90
24085;DHT22;12268;52.110;5.548;2023-06-24T03:21:59;20.00;99.90
24085;DHT22;12268;52.110;5.548;2023-06-24T03:24:25;20.00;99.90
24085;DHT22;12268;52.110;5.548;2023-06-24T03:26:50;20.10;99.90
24085;DHT22;12268;52.110;5.548;2023-06-24T03:29:22;20.40;99.90
24085;DHT22;12268;52.110;5.548;2023-06-24T03:31:47;20.40;99.90
24085;DHT22;12268;52.110;5.548;2023-06-24T03:34:13;20.20;99.90
24085;DHT22;12268;52.110;5.548;2023-06-24T03:36:39;20.00;99.90
24085;DHT22;12268;52.110;5.548;2023-06-24T03:39:05;19.90;99.90
24085;DHT22;12268;52.110;5.548;2023-06-24T03:41:30;20.10;99.90
24085;DHT22;12268;52.110;5.548;2023-06-24T03:43:56;20.20;99.90
24085;DHT22;12268;52.110;5.548;2023-06-24T03:46:21;20.20;99.90
24085;DHT22;12268;52.110;5.548;2023-06-24T03:48:47;20.30;99.90
24085;DHT22;12268;52.110;5.548;2023-06-24T03:51:13;20.40;99.90
24085;DHT22;12268;52.110;5.548;2023-06-24T03:53:38;20.50;99.90
24085;DHT22;12268;52.110;5.548;2023-06-24T03:56:04;20.30;99.90
24085;DHT22;12268;52.110;5.548;2023-06-24T03:58:30;20.20;99.90
24085;DHT22;12268;52.110;5.548;2023-06-24T04:00:56;20.20;99.90
24085;DHT22;12268;52.110;5.548;2023-06-24T04:03:23;20.40;99.90
24085;DHT22;12268;52.110;5.548;2023-06-24T04:05:52;20.50;99.90
24085;DHT22;12268;52.110;5.548;2023-06-24T04:08:18;20.40;99.90
24085;DHT22;12268;52.110;5.548;2023-06-24T04:10:43;20.40;99.90
24085;DHT22;12268;52.110;5.548;2023-06-24T04:13:09;20.30;99.90
24085;DHT22;12268;52.110;5.548;2023-06-24T04:15:35;20.20;99.90
24085;DHT22;12268;52.110;5.548;2023-06-24T04:18:00;20.20;99.90
24085;DHT22;12268;52.110;5.548;2023-06-24T04:20:26;20.20;99.90
24085;DHT22;12268;52.110;5.548;2023-06-24T04:22:51;20.30;99.90
24085;DHT22;12268;52.110;5.548;2023-06-24T04:25:17;20.40;99.90
24085;DHT22;12268;52.110;5.548;2023-06-24T04:27:42;20.40;99.90
24085;DHT22;12268;52.110;5.548;2023-06-24T04:30:08;20.40;99.90
24085;DHT22;12268;52.110;5.548;2023-06-24T04:32:34;20.50;99.90
24085;DHT22;12268;52.110;5.548;2023-06-24T04:34:59;20.40;99.90
24085;DHT22;12268;52.110;5.548;2023-06-24T04:37:26;20.30;99.90
24085;DHT22;12268;52.110;5.548;2023-06-24T04:39:52;20.40;99.90
24085;DHT22;12268;52.110;5.548;2023-06-24T04:42:17;20.40;99.90
24085;DHT22;12268;52.110;5.548;2023-06-24T04:44:43;20.60;99.90
24085;DHT22;12268;52.110;5.548;2023-06-24T04:47:08;20.70;99.90
24085;DHT22;12268;52.110;5.548;2023-06-24T04:49:34;20.70;99.90
24085;DHT22;12268;52.110;5.548;2023-06-24T04:52:00;20.70;99.90
24085;DHT22;12268;52.110;5.548;2023-06-24T04:54:26;20.80;99.90
24085;DHT22;12268;52.110;5.548;2023-06-24T04:56:52;20.90;99.90
24085;DHT22;12268;52.110;5.548;2023-06-24T04:59:20;21.00;99.90
24085;DHT22;12268;52.110;5.548;2023-06-24T05:01:46;21.10;99.90
24085;DHT22;12268;52.110;5.548;2023-06-24T05:04:11;21.20;99.90
24085;DHT22;12268;52.110;5.548;2023-06-24T05:06:37;21.30;99.90
24085;DHT22;12268;52.110;5.548;2023-06-24T05:09:03;21.50;99.90
24085;DHT22;12268;52.110;5.548;2023-06-24T05:11:28;21.40;99.90
24085;DHT22;12268;52.110;5.548;2023-06-24T05:13:54;21.40;99.90
24085;DHT22;12268;52.110;5.548;2023-06-24T05:16:19;21.40;99.90
24085;DHT22;12268;52.110;5.548;2023-06-24T05:18:45;21.80;99.90
24085;DHT22;12268;52.110;5.548;2023-06-24T05:21:11;21.60;99.90
24085;DHT22;12268;52.110;5.548;2023-06-24T05:23:36;21.70;99.90
24085;DHT22;12268;52.110;5.548;2023-06-24T05:26:02;21.80;99.90
24085;DHT22;12268;52.110;5.548;2023-06-24T05:28:27;21.70;99.90
24085;DHT22;12268;52.110;5.548;2023-06-24T05:30:53;21.70;99.90
24085;DHT22;12268;52.110;5.548;2023-06-24T05:33:19;21.70;99.90
24085;DHT22;12268;52.110;5.548;2023-06-24T05:35:44;21.80;99.90
24085;DHT22;12268;52.110;5.548;2023-06-24T05:38:10;21.70;99.90
24085;DHT22;12268;52.110;5.548;2023-06-24T05:40:35;21.80;99.90
24085;DHT22;12268;52.110;5.548;2023-06-24T05:43:01;21.90;99.90
24085;DHT22;12268;52.110;5.548;2023-06-24T05:45:28;22.10;99.90
24085;DHT22;12268;52.110;5.548;2023-06-24T05:47:54;22.10;99.90
24085;DHT22;12268;52.110;5.548;2023-06-24T05:50:19;22.20;99.90
24085;DHT22;12268;52.110;5.548;2023-06-24T05:52:45;22.10;99.90
24085;DHT22;12268;52.110;5.548;2023-06-24T05:55:10;22.40;99.90
24085;DHT22;12268;52.110;5.548;2023-06-24T05:57:39;22.50;99.90
24085;DHT22;12268;52.110;5.548;2023-06-24T06:00:05;22.60;99.90
24085;DHT22;12268;52.110;5.548;2023-06-24T06:02:31;22.50;99.90
24085;DHT22;12268;52.110;5.548;2023-06-24T06:04:56;22.50;99.90
24085;DHT22;12268;52.110;5.548;2023-06-24T06:07:22;22.60;99.90
24085;DHT22;12268;52.110;5.548;2023-06-24T06:09:47;22.80;99.90
24085;DHT22;12268;52.110;5.548;2023-06-24T06:12:13;22.80;99.90
24085;DHT22;12268;52.110;5.548;2023-06-24T06:14:38;22.80;99.90
24085;DHT22;12268;52.110;5.548;2023-06-24T06:17:04;22.80;99.90
24085;DHT22;12268;52.110;5.548;2023-06-24T06:19:30;22.50;99.90
24085;DHT22;12268;52.110;5.548;2023-06-24T06:21:55;22.60;99.90
24085;DHT22;12268;52.110;5.548;2023-06-24T06:24:21;22.80;99.90
24085;DHT22;12268;52.110;5.548;2023-06-24T06:26:46;23.00;99.90
24085;DHT22;12268;52.110;5.548;2023-06-24T06:29:12;22.90;99.90
24085;DHT22;12268;52.110;5.548;2023-06-24T06:31:37;23.10;99.90
24085;DHT22;12268;52.110;5.548;2023-06-24T06:34:03;23.20;99.90
24085;DHT22;12268;52.110;5.548;2023-06-24T06:36:29;23.00;99.90
24085;DHT22;12268;52.110;5.548;2023-06-24T06:38:54;23.10;99.90
24085;DHT22;12268;52.110;5.548;2023-06-24T06:41:20;23.20;99.90
24085;DHT22;12268;52.110;5.548;2023-06-24T06:43:52;23.30;99.90
24085;DHT22;12268;52.110;5.548;2023-06-24T06:46:17;23.40;99.90
24085;DHT22;12268;52.110;5.548;2023-06-24T06:48:43;23.50;99.90
24085;DHT22;12268;52.110;5.548;2023-06-24T06:51:08;23.80;99.90
24085;DHT22;12268;52.110;5.548;2023-06-24T06:53:34;23.90;99.90
24085;DHT22;12268;52.110;5.548;2023-06-24T06:55:59;24.10;99.90
24085;DHT22;12268;52.110;5.548;2023-06-24T06:58:25;24.40;99.90
24085;DHT22;12268;52.110;5.548;2023-06-24T07:00:51;24.50;99.90
24085;DHT22;12268;52.110;5.548;2023-06-24T07:03:16;24.50;99.90
24085;DHT22;12268;52.110;5.548;2023-06-24T07:05:42;24.70;99.90
24085;DHT22;12268;52.110;5.548;2023-06-24T07:08:07;24.70;99.90
24085;DHT22;12268;52.110;5.548;2023-06-24T07:10:33;24.90;99.90
24085;DHT22;12268;52.110;5.548;2023-06-24T07:12:59;25.10;99.90
24085;DHT22;12268;52.110;5.548;2023-06-24T07:15:27;24.80;99.90
24085;DHT22;12268;52.110;5.548;2023-06-24T07:17:53;24.90;99.90
24085;DHT22;12268;52.110;5.548;2023-06-24T07:20:20;24.70;99.90
24085;DHT22;12268;52.110;5.548;2023-06-24T07:22:46;24.90;99.90
24085;DHT22;12268;52.110;5.548;2023-06-24T07:25:12;25.10;99.90
24085;DHT22;12268;52.110;5.548;2023-06-24T07:27:38;25.20;99.90
24085;DHT22;12268;52.110;5.548;2023-06-24T07:30:04;25.30;99.90
24085;DHT22;12268;52.110;5.548;2023-06-24T07:32:30;25.50;99.90
24085;DHT22;12268;52.110;5.548;2023-06-24T07:34:56;25.70;99.90
24085;DHT22;12268;52.110;5.548;2023-06-24T07:37:22;25.80;99.90
24085;DHT22;12268;52.110;5.548;2023-06-24T07:39:47;26.00;99.90
24085;DHT22;12268;52.110;5.548;2023-06-24T07:42:13;26.10;99.90
24085;DHT22;12268;52.110;5.548;2023-06-24T07:44:47;26.30;99.90
24085;DHT22;12268;52.110;5.548;2023-06-24T07:47:12;26.30;99.90
24085;DHT22;12268;52.110;5.548;2023-06-24T07:49:38;26.30;99.90
24085;DHT22;12268;52.110;5.548;2023-06-24T07:52:03;26.40;99.90
24085;DHT22;12268;52.110;5.548;2023-06-24T07:54:30;26.60;99.90
24085;DHT22;12268;52.110;5.548;2023-06-24T07:56:56;26.80;99.90
24085;DHT22;12268;52.110;5.548;2023-06-24T07:59:21;27.00;99.90
24085;DHT22;12268;52.110;5.548;2023-06-24T08:01:47;27.30;99.30
24085;DHT22;12268;52.110;5.548;2023-06-24T08:04:13;27.30;99.90
24085;DHT22;12268;52.110;5.548;2023-06-24T08:06:39;27.60;99.90
24085;DHT22;12268;52.110;5.548;2023-06-24T08:09:04;27.80;99.90
24085;DHT22;12268;52.110;5.548;2023-06-24T08:11:30;28.10;99.90
24085;DHT22;12268;52.110;5.548;2023-06-24T08:13:55;28.90;99.70
24085;DHT22;12268;52.110;5.548;2023-06-24T08:16:21;30.00;97.20
24085;DHT22;12268;52.110;5.548;2023-06-24T08:18:46;31.10;95.80
24085;DHT22;12268;52.110;5.548;2023-06-24T08:21:12;32.50;95.00
24085;DHT22;12268;52.110;5.548;2023-06-24T08:23:37;32.80;92.80
24085;DHT22;12268;52.110;5.548;2023-06-24T08:26:03;33.00;91.40
24085;DHT22;12268;52.110;5.548;2023-06-24T08:28:28;33.20;90.20
24085;DHT22;12268;52.110;5.548;2023-06-24T08:30:54;33.20;90.00
24085;DHT22;12268;52.110;5.548;2023-06-24T08:33:20;32.90;91.80
24085;DHT22;12268;52.110;5.548;2023-06-24T08:35:45;32.70;91.30
24085;DHT22;12268;52.110;5.548;2023-06-24T08:38:11;32.60;87.80
24085;DHT22;12268;52.110;5.548;2023-06-24T08:40:36;33.30;87.30
24085;DHT22;12268;52.110;5.548;2023-06-24T08:43:05;33.70;86.50
24085;DHT22;12268;52.110;5.548;2023-06-24T08:45:31;34.20;84.10
24085;DHT22;12268;52.110;5.548;2023-06-24T08:47:58;33.90;86.90
24085;DHT22;12268;52.110;5.548;2023-06-24T08:50:30;33.90;86.80
24085;DHT22;12268;52.110;5.548;2023-06-24T08:52:57;33.90;85.30
24085;DHT22;12268;52.110;5.548;2023-06-24T08:55:23;34.10;79.80
24085;DHT22;12268;52.110;5.548;2023-06-24T08:57:53;34.10;85.90
24085;DHT22;12268;52.110;5.548;2023-06-24T09:00:18;34.10;84.60
24085;DHT22;12268;52.110;5.548;2023-06-24T09:02:44;34.20;82.80
24085;DHT22;12268;52.110;5.548;2023-06-24T09:05:10;34.00;83.00
24085;DHT22;12268;52.110;5.548;2023-06-24T09:07:36;34.20;80.40
24085;DHT22;12268;52.110;5.548;2023-06-24T09:10:02;34.90;82.30
24085;DHT22;12268;52.110;5.548;2023-06-24T09:12:31;35.60;75.50
24085;DHT22;12268;52.110;5.548;2023-06-24T09:14:57;36.00;78.40
24085;DHT22;12268;52.110;5.548;2023-06-24T09:17:23;36.20;79.40
24085;DHT22;12268;52.110;5.548;2023-06-24T09:19:50;37.20;79.30
24085;DHT22;12268;52.110;5.548;2023-06-24T09:22:16;37.40;77.10
24085;DHT22;12268;52.110;5.548;2023-06-24T09:24:46;37.30;76.40
24085;DHT22;12268;52.110;5.548;2023-06-24T09:27:13;37.40;75.30
24085;DHT22;12268;52.110;5.548;2023-06-24T09:29:40;37.60;77.20
24085;DHT22;12268;52.110;5.548;2023-06-24T09:32:07;37.60;75.40
24085;DHT22;12268;52.110;5.548;2023-06-24T09:34:33;37.90;70.50
24085;DHT22;12268;52.110;5.548;2023-06-24T09:36:59;37.50;70.20
24085;DHT22;12268;52.110;5.548;2023-06-24T09:39:26;37.40;69.80
24085;DHT22;12268;52.110;5.548;2023-06-24T09:41:54;37.20;70.10
24085;DHT22;12268;52.110;5.548;2023-06-24T09:44:19;37.10;74.10
24085;DHT22;12268;52.110;5.548;2023-06-24T09:46:45;37.40;70.80
24085;DHT22;12268;52.110;5.548;2023-06-24T09:49:11;37.20;70.00
24085;DHT22;12268;52.110;5.548;2023-06-24T09:51:38;37.80;69.50
24085;DHT22;12268;52.110;5.548;2023-06-24T09:54:08;38.50;70.00
24085;DHT22;12268;52.110;5.548;2023-06-24T09:56:36;38.50;69.40
24085;DHT22;12268;52.110;5.548;2023-06-24T09:59:05;38.20;70.00
24085;DHT22;12268;52.110;5.548;2023-06-24T10:01:32;38.90;69.90
24085;DHT22;12268;52.110;5.548;2023-06-24T10:04:01;40.00;65.50
24085;DHT22;12268;52.110;5.548;2023-06-24T10:06:28;40.40;68.90
24085;DHT22;12268;52.110;5.548;2023-06-24T10:08:53;40.50;62.50
24085;DHT22;12268;52.110;5.548;2023-06-24T10:11:19;40.30;61.90
24085;DHT22;12268;52.110;5.548;2023-06-24T10:13:45;39.90;64.30
24085;DHT22;12268;52.110;5.548;2023-06-24T10:16:11;38.60;64.10
24085;DHT22;12268;52.110;5.548;2023-06-24T10:18:38;38.00;65.30
24085;DHT22;12268;52.110;5.548;2023-06-24T10:21:05;38.80;66.90
24085;DHT22;12268;52.110;5.548;2023-06-24T10:23:52;39.10;64.60
24085;DHT22;12268;52.110;5.548;2023-06-24T10:34:32;38.90;63.80
24085;DHT22;12268;52.110;5.548;2023-06-24T10:37:02;38.20;66.70
24085;DHT22;12268;52.110;5.548;2023-06-24T10:39:48;37.30;68.90
24085;DHT22;12268;52.110;5.548;2023-06-24T10:44:53;39.10;61.70
24085;DHT22;12268;52.110;5.548;2023-06-24T10:47:19;39.80;61.10
24085;DHT22;12268;52.110;5.548;2023-06-24T10:49:45;40.80;64.70
24085;DHT22;12268;52.110;5.548;2023-06-24T10:52:11;40.50;64.10
24085;DHT22;12268;52.110;5.548;2023-06-24T11:05:00;42.30;57.10
24085;DHT22;12268;52.110;5.548;2023-06-24T11:07:28;41.60;57.30
24085;DHT22;12268;52.110;5.548;2023-06-24T11:09:57;40.90;57.30
24085;DHT22;12268;52.110;5.548;2023-06-24T11:12:42;40.90;56.70
24085;DHT22;12268;52.110;5.548;2023-06-24T11:15:13;42.10;56.50
24085;DHT22;12268;52.110;5.548;2023-06-24T11:17:39;43.50;57.00
24085;DHT22;12268;52.110;5.548;2023-06-24T11:20:13;44.20;54.50
24085;DHT22;12268;52.110;5.548;2023-06-24T11:22:44;43.80;55.10
24085;DHT22;12268;52.110;5.548;2023-06-24T13:34:37;38.10;63.00
24085;DHT22;12268;52.110;5.548;2023-06-24T13:37:03;38.50;61.80
24085;DHT22;12268;52.110;5.548;2023-06-24T13:39:29;38.20;60.30
24085;DHT22;12268;52.110;5.548;2023-06-24T13:41:56;37.40;65.70
24085;DHT22;12268;52.110;5.548;2023-06-24T13:44:22;37.00;67.80
24085;DHT22;12268;52.110;5.548;2023-06-24T13:46:49;36.80;68.70
24085;DHT22;12268;52.110;5.548;2023-06-24T13:49:15;36.50;64.80
24085;DHT22;12268;52.110;5.548;2023-06-24T13:51:41;36.30;65.50
24085;DHT22;12268;52.110;5.548;2023-06-24T13:54:07;36.40;69.70
24085;DHT22;12268;52.110;5.548;2023-06-24T17:05:06;33.00;89.40
24085;DHT22;12268;52.110;5.548;2023-06-24T17:07:32;32.90;87.70
24085;DHT22;12268;52.110;5.548;2023-06-24T17:09:57;32.70;89.30
24085;DHT22;12268;52.110;5.548;2023-06-24T17:12:23;32.60;91.10
24085;DHT22;12268;52.110;5.548;2023-06-24T17:14:48;32.60;90.10
24085;DHT22;12268;52.110;5.548;2023-06-24T17:17:14;32.60;89.60
24085;DHT22;12268;52.110;5.548;2023-06-24T17:19:39;32.50;90.70
24085;DHT22;12268;52.110;5.548;2023-06-24T17:22:05;32.50;90.60
24085;DHT22;12268;52.110;5.548;2023-06-24T17:24:31;32.40;90.50
24085;DHT22;12268;52.110;5.548;2023-06-24T19:36:24;28.30;99.90
24085;DHT22;12268;52.110;5.548;2023-06-24T19:38:50;28.10;99.90
24085;DHT22;12268;52.110;5.548;2023-06-24T19:41:15;28.00;99.90
24085;DHT22;12268;52.110;5.548;2023-06-24T19:43:47;27.90;99.90
24085;DHT22;12268;52.110;5.548;2023-06-24T19:46:13;27.80;99.90
24085;DHT22;12268;52.110;5.548;2023-06-24T19:48:38;27.70;99.90
24085;DHT22;12268;52.110;5.548;2023-06-24T19:51:04;27.60;99.90
24085;DHT22;12268;52.110;5.548;2023-06-24T19:53:29;27.50;99.90
24085;DHT22;12268;52.110;5.548;2023-06-24T22:05:23;24.90;99.90
24085;DHT22;12268;52.110;5.548;2023-06-24T22:07:48;24.90;99.90
24085;DHT22;12268;52.110;5.548;2023-06-24T22:10:14;24.90;99.90
24085;DHT22;12268;52.110;5.548;2023-06-24T22:12:40;24.90;99.90
24085;DHT22;12268;52.110;5.548;2023-06-24T22:15:05;24.90;99.90
24085;DHT22;12268;52.110;5.548;2023-06-24T22:17:31;24.90;99.90
24085;DHT22;12268;52.110;5.548;2023-06-24T22:19:56;24.70;99.90
24085;DHT22;12268;52.110;5.548;2023-06-24T22:22:22;24.70;99.90
24085;DHT22;12268;52.110;5.548;2023-06-24T22:24:48;24.60;99.90
24085;DHT22;12268;52.110;5.548;2023-06-24T22:27:14;24.60;99.90
24085;DHT22;12268;52.110;5.548;2023-06-24T22:29:40;24.60;99.90
24085;DHT22;12268;52.110;5.548;2023-06-24T22:32:06;24.50;99.90
24085;DHT22;12268;52.110;5.548;2023-06-24T22:34:31;24.40;99.90
24085;DHT22;12268;52.110;5.548;2023-06-24T22:36:57;24.50;99.90
24085;DHT22;12268;52.110;5.548;2023-06-24T22:39:22;24.50;99.90
24085;DHT22;12268;52.110;5.548;2023-06-24T22:41:48;24.40;99.90
24085;DHT22;12268;52.110;5.548;2023-06-24T22:44:13;24.40;99.90
24085;DHT22;12268;52.110;5.548;2023-06-24T22:46:39;24.40;99.90
24085;DHT22;12268;52.110;5.548;2023-06-24T22:49:04;24.50;99.90
24085;DHT22;12268;52.110;5.548;2023-06-24T22:51:30;24.50;99.90
24085;DHT22;12268;52.110;5.548;2023-06-24T22:53:56;24.50;99.90
24085;DHT22;12268;52.110;5.548;2023-06-24T22:56:22;24.40;99.90
24085;DHT22;12268;52.110;5.548;2023-06-24T22:58:47;24.50;99.90
24085;DHT22;12268;52.110;5.548;2023-06-24T23:01:13;24.50;99.90
24085;DHT22;12268;52.110;5.548;2023-06-24T23:03:39;24.30;99.90
24085;DHT22;12268;52.110;5.548;2023-06-24T23:06:05;24.20;99.90
24085;DHT22;12268;52.110;5.548;2023-06-24T23:08:30;23.90;99.90
24085;DHT22;12268;52.110;5.548;2023-06-24T23:10:56;24.00;99.90
24085;DHT22;12268;52.110;5.548;2023-06-24T23:13:22;24.00;99.90
24085;DHT22;12268;52.110;5.548;2023-06-24T23:15:48;23.90;99.90
24085;DHT22;12268;52.110;5.548;2023-06-24T23:18:14;24.20;99.90
24085;DHT22;12268;52.110;5.548;2023-06-24T23:20:39;24.00;99.90
24085;DHT22;12268;52.110;5.548;2023-06-24T23:23:09;23.90;99.90
24085;DHT22;12268;52.110;5.548;2023-06-24T23:25:42;23.60;99.90
24085;DHT22;12268;52.110;5.548;2023-06-24T23:28:13;23.50;99.90
24085;DHT22;12268;52.110;5.548;2023-06-24T23:30:46;23.60;99.90
24085;DHT22;12268;52.110;5.548;2023-06-24T23:33:13;23.60;99.90
24085;DHT22;12268;52.110;5.548;2023-06-24T23:35:49;23.60;99.90
24085;DHT22;12268;52.110;5.548;2023-06-24T23:38:17;23.50;99.90
24085;DHT22;12268;52.110;5.548;2023-06-24T23:40:43;23.50;99.90
24085;DHT22;12268;52.110;5.548;2023-06-24T23:43:09;23.50;99.90
24085;DHT22;12268;52.110;5.548;2023-06-24T23:45:35;23.40;99.90
24085;DHT22;12268;52.110;5.548;2023-06-24T23:48:01;23.40;99.90
24085;DHT22;12268;52.110;5.548;2023-06-24T23:50:27;23.40;99.90
24085;DHT22;12268;52.110;5.548;2023-06-24T23:52:53;23.50;99.90
24085;DHT22;12268;52.110;5.548;2023-06-24T23:55:19;23.40;99.90
24085;DHT22;12268;52.110;5.548;2023-06-24T23:57:44;23.40;99.90
